Time;durP1;ratioP1;P1;durP2;ratioP2;P2;SDS_P1;SDS_P2;PMS_P1;PMS_P2;Temp;Humidity;BMP_temperature;BMP_pressure;BME280_temperature;BME280_humidity;BME280_pressure;Samples;Min_cycle;Max_cycle;Signal;HPM_P1;HPM_P2
2022/11/05 00:09:34;;;;;;;4.65;1.33;;;;;;;;;;4918736;29;20120;-75
2022/11/05 00:17:34;;;;;;;4.65;1.20;;;;;;;;;;4911834;29;20168;-75
2022/11/05 00:20:01;;;;;;;6.43;1.63;;;;;;;;;;4918254;29;20534;-75
2022/11/05 00:25:12;;;;;;;8.82;1.45;;;;;;;;;;4916736;29;20712;-74
2022/11/05 00:27:39;;;;;;;6.47;1.52;;;;;;;;;;4915793;29;20518;-74
2022/11/05 00:30:06;;;;;;;4.53;1.38;;;;;;;;;;4917261;29;20040;-74
2022/11/05 00:32:32;;;;;;;6.20;1.83;;;;;;;;;;4916895;29;20535;-74
2022/11/05 00:34:58;;;;;;;3.20;1.38;;;;;;;;;;4917888;29;20044;-74
2022/11/05 00:37:26;;;;;;;4.40;1.30;;;;;;;;;;4917953;29;20044;-74
2022/11/05 00:39:53;;;;;;;8.40;1.67;;;;;;;;;;4919192;29;20059;-74
2022/11/05 00:45:04;;;;;;;5.43;1.20;;;;;;;;;;4918819;29;20059;-74
2022/11/05 00:50:16;;;;;;;3.67;1.25;;;;;;;;;;4918770;29;20070;-74
2022/11/05 00:52:55;;;;;;;6.32;1.63;;;;;;;;;;4919295;29;20040;-74
2022/11/05 00:55:22;;;;;;;7.05;1.40;;;;;;;;;;4919176;29;20048;-73
2022/11/05 00:57:49;;;;;;;7.00;1.52;;;;;;;;;;4919700;29;20044;-74
2022/11/05 01:00:15;;;;;;;7.22;1.80;;;;;;;;;;4919085;29;20048;-74
2022/11/05 01:02:41;;;;;;;9.07;1.48;;;;;;;;;;4918878;29;20040;-74
2022/11/05 01:05:08;;;;;;;10.40;1.40;;;;;;;;;;4918100;29;20578;-74
2022/11/05 01:07:34;;;;;;;6.93;1.92;;;;;;;;;;4918862;29;20103;-74
2022/11/05 01:10:00;;;;;;;6.63;1.38;;;;;;;;;;4919143;29;20052;-76
2022/11/05 01:12:26;;;;;;;4.18;1.63;;;;;;;;;;4919057;29;20032;-76
2022/11/05 01:14:52;;;;;;;4.47;1.23;;;;;;;;;;4918911;29;20040;-75
2022/11/05 01:17:18;;;;;;;7.35;1.38;;;;;;;;;;4918859;29;20044;-75
2022/11/05 01:19:44;;;;;;;7.38;1.30;;;;;;;;;;4918636;29;20059;-75
2022/11/05 01:22:10;;;;;;;2.70;0.93;;;;;;;;;;4919372;29;20044;-75
2022/11/05 01:24:36;;;;;;;6.57;1.35;;;;;;;;;;4918269;29;20047;-75
2022/11/05 01:27:03;;;;;;;5.45;1.00;;;;;;;;;;4919031;29;20104;-75
2022/11/05 01:29:29;;;;;;;3.55;0.90;;;;;;;;;;4918860;29;20075;-75
2022/11/05 01:31:55;;;;;;;2.75;0.93;;;;;;;;;;4918699;29;20051;-75
2022/11/05 01:34:21;;;;;;;3.97;1.20;;;;;;;;;;4919091;29;20068;-75
2022/11/05 01:36:47;;;;;;;5.00;2.03;;;;;;;;;;4918916;29;20043;-75
2022/11/05 01:39:13;;;;;;;2.35;0.98;;;;;;;;;;4919088;29;20055;-75
2022/11/05 01:41:39;;;;;;;7.90;1.88;;;;;;;;;;4918091;29;20056;-75
2022/11/05 01:44:05;;;;;;;7.28;1.27;;;;;;;;;;4917911;29;20059;-75
2022/11/05 01:46:44;;;;;;;4.85;1.63;;;;;;;;;;4918552;29;20066;-75
2022/11/05 01:49:13;;;;;;;4.30;1.33;;;;;;;;;;4918519;29;20055;-75
2022/11/05 01:51:40;;;;;;;5.32;1.13;;;;;;;;;;4918512;29;20051;-75
2022/11/05 01:54:09;;;;;;;7.22;1.50;;;;;;;;;;4918137;29;20134;-75
2022/11/05 01:56:37;;;;;;;4.32;1.02;;;;;;;;;;4917784;29;20048;-75
2022/11/05 01:59:09;;;;;;;1.67;0.90;;;;;;;;;;4918112;29;20071;-75
2022/11/05 02:01:35;;;;;;;3.30;0.95;;;;;;;;;;4917862;29;20043;-75
2022/11/05 02:04:03;;;;;;;2.67;1.08;;;;;;;;;;4917786;29;20112;-75
2022/11/05 02:06:29;;;;;;;3.85;1.00;;;;;;;;;;4918616;29;20052;-75
2022/11/05 02:08:59;;;;;;;6.03;1.50;;;;;;;;;;4918472;29;20051;-75
2022/11/05 02:11:25;;;;;;;3.60;0.82;;;;;;;;;;4917898;29;20048;-75
2022/11/05 02:13:51;;;;;;;5.47;1.05;;;;;;;;;;4917627;29;20036;-75
2022/11/05 02:16:23;;;;;;;2.55;1.10;;;;;;;;;;4918849;29;20044;-75
2022/11/05 02:18:49;;;;;;;4.78;1.40;;;;;;;;;;4922305;29;20044;-75
2022/11/05 02:21:28;;;;;;;4.82;1.45;;;;;;;;;;4921462;29;20126;-75
2022/11/05 02:24:20;;;;;;;3.22;1.20;;;;;;;;;;4921728;29;20076;-75
2022/11/05 02:26:46;;;;;;;5.80;0.88;;;;;;;;;;4913282;29;20127;-75
2022/11/05 02:29:18;;;;;;;4.95;1.27;;;;;;;;;;4921842;29;20067;-75
2022/11/05 02:31:44;;;;;;;2.80;0.98;;;;;;;;;;4921521;29;20104;-75
2022/11/05 02:34:10;;;;;;;4.00;0.70;;;;;;;;;;4921182;29;20400;-75
2022/11/05 02:36:53;;;;;;;3.35;0.98;;;;;;;;;;4921413;29;20083;-75
2022/11/05 02:39:25;;;;;;;3.10;0.85;;;;;;;;;;4921514;29;20040;-75
2022/11/05 02:41:55;;;;;;;4.85;1.20;;;;;;;;;;4921709;29;20048;-75
2022/11/05 02:44:34;;;;;;;5.82;1.35;;;;;;;;;;4921792;29;20076;-75
2022/11/05 02:47:12;;;;;;;4.32;1.02;;;;;;;;;;4921287;29;20060;-75
2022/11/05 02:49:44;;;;;;;3.70;0.95;;;;;;;;;;4921335;29;20071;-75
2022/11/05 02:52:15;;;;;;;3.95;1.08;;;;;;;;;;4921738;29;20055;-75
2022/11/05 02:55:04;;;;;;;3.97;1.20;;;;;;;;;;4921480;29;20052;-75
2022/11/05 02:57:33;;;;;;;3.45;1.10;;;;;;;;;;4921003;29;20059;-75
2022/11/05 03:00:27;;;;;;;3.58;0.90;;;;;;;;;;4936053;29;20437;-75
2022/11/05 03:02:53;;;;;;;4.65;1.20;;;;;;;;;;4920886;29;20040;-75
2022/11/05 03:05:24;;;;;;;3.17;1.10;;;;;;;;;;4921231;29;20084;-75
2022/11/05 03:07:56;;;;;;;5.55;1.10;;;;;;;;;;4921478;29;20052;-75
2022/11/05 03:10:25;;;;;;;1.17;0.70;;;;;;;;;;4920856;29;20080;-75
2022/11/05 03:12:51;;;;;;;4.88;1.08;;;;;;;;;;4921102;29;20044;-75
2022/11/05 03:15:32;;;;;;;5.60;0.80;;;;;;;;;;4921028;29;20052;-75
2022/11/05 03:18:06;;;;;;;2.55;0.82;;;;;;;;;;4921273;29;20207;-75
2022/11/05 03:20:32;;;;;;;4.68;1.10;;;;;;;;;;4920813;29;20055;-75
2022/11/05 03:22:59;;;;;;;6.93;1.20;;;;;;;;;;4920904;29;20043;-76
2022/11/05 03:25:26;;;;;;;6.63;1.20;;;;;;;;;;4921199;29;20047;-76
2022/11/05 03:27:55;;;;;;;3.15;1.20;;;;;;;;;;4920459;29;20051;-75
2022/11/05 03:30:22;;;;;;;3.10;1.10;;;;;;;;;;4920418;29;20054;-75
2022/11/05 03:32:50;;;;;;;5.82;1.13;;;;;;;;;;4921009;29;20047;-75
2022/11/05 03:35:22;;;;;;;4.65;0.80;;;;;;;;;;4920485;29;20135;-75
2022/11/05 03:37:50;;;;;;;3.30;0.80;;;;;;;;;;4920640;29;20075;-75
2022/11/05 03:40:18;;;;;;;3.58;1.00;;;;;;;;;;4920554;29;20444;-75
2022/11/05 03:42:46;;;;;;;2.00;0.90;;;;;;;;;;4920317;29;20453;-75
2022/11/05 03:45:21;;;;;;;4.57;1.30;;;;;;;;;;4920372;29;20122;-75
2022/11/05 03:47:49;;;;;;;4.43;1.00;;;;;;;;;;4920277;29;20048;-75
2022/11/05 03:50:21;;;;;;;3.78;1.02;;;;;;;;;;4919574;29;20036;-75
2022/11/05 03:52:58;;;;;;;3.95;1.00;;;;;;;;;;4920278;29;20094;-75
2022/11/05 03:55:28;;;;;;;3.58;1.10;;;;;;;;;;4920184;29;20052;-75
2022/11/05 03:57:55;;;;;;;4.60;0.95;;;;;;;;;;4920051;29;20048;-75
2022/11/05 04:00:22;;;;;;;4.32;1.00;;;;;;;;;;4919426;29;20392;-75
2022/11/05 04:02:48;;;;;;;2.17;0.95;;;;;;;;;;4919933;29;20052;-75
2022/11/05 04:05:14;;;;;;;4.72;1.20;;;;;;;;;;4919954;29;20051;-75
2022/11/05 04:13:23;;;;;;;2.42;0.93;;;;;;;;;;4919269;29;20039;-75
2022/11/05 04:18:35;;;;;;;3.13;1.05;;;;;;;;;;4919674;29;20074;-75
2022/11/05 04:26:30;;;;;;;7.28;1.30;;;;;;;;;;4918816;29;20075;-75
2022/11/05 04:31:41;;;;;;;7.20;1.00;;;;;;;;;;4919189;29;20051;-75
2022/11/05 04:34:07;;;;;;;5.88;1.13;;;;;;;;;;4919338;29;20050;-75
2022/11/05 04:36:33;;;;;;;5.00;1.17;;;;;;;;;;4919013;29;20442;-75
2022/11/05 04:38:59;;;;;;;6.85;0.90;;;;;;;;;;4919192;29;20048;-75
2022/11/05 04:41:26;;;;;;;5.57;1.23;;;;;;;;;;4917949;29;20071;-75
2022/11/05 04:43:52;;;;;;;3.17;1.13;;;;;;;;;;4918882;29;20563;-75
2022/11/05 04:46:18;;;;;;;4.18;1.40;;;;;;;;;;4919689;29;20048;-75
2022/11/05 04:48:47;;;;;;;4.75;1.05;;;;;;;;;;4919651;29;20044;-75
2022/11/05 04:51:13;;;;;;;3.83;1.20;;;;;;;;;;4919834;29;20044;-75
2022/11/05 04:53:39;;;;;;;2.67;1.02;;;;;;;;;;4919785;29;20044;-75
2022/11/05 04:56:24;;;;;;;5.80;1.27;;;;;;;;;;4919234;29;20099;-75
2022/11/05 04:58:51;;;;;;;3.83;1.08;;;;;;;;;;4919751;29;20048;-75
2022/11/05 05:01:18;;;;;;;3.00;1.13;;;;;;;;;;4919284;29;20571;-75
2022/11/05 05:03:46;;;;;;;3.67;1.10;;;;;;;;;;4919044;29;20073;-75
2022/11/05 05:06:12;;;;;;;4.47;1.30;;;;;;;;;;4919065;29;20138;-75
2022/11/05 05:08:38;;;;;;;2.85;1.13;;;;;;;;;;4919045;29;20048;-75
2022/11/05 05:11:05;;;;;;;4.53;1.10;;;;;;;;;;4918870;29;20051;-75
2022/11/05 05:13:32;;;;;;;6.57;1.48;;;;;;;;;;4919426;29;20040;-75
2022/11/05 05:15:58;;;;;;;4.40;1.58;;;;;;;;;;4918660;29;20048;-75
2022/11/05 05:18:25;;;;;;;5.72;1.27;;;;;;;;;;4919169;29;20047;-75
2022/11/05 05:23:37;;;;;;;3.55;1.17;;;;;;;;;;4918828;29;20046;-75
2022/11/05 05:26:03;;;;;;;3.10;1.00;;;;;;;;;;4918337;29;20108;-75
2022/11/05 05:28:29;;;;;;;3.90;0.90;;;;;;;;;;4918795;29;20069;-75
2022/11/05 05:30:58;;;;;;;4.32;1.15;;;;;;;;;;4918470;29;20051;-75
2022/11/05 05:33:24;;;;;;;3.40;1.17;;;;;;;;;;4918621;29;20484;-75
2022/11/05 05:35:50;;;;;;;5.55;1.30;;;;;;;;;;4918676;29;20050;-75
2022/11/05 05:38:16;;;;;;;1.60;1.10;;;;;;;;;;4918663;29;20047;-75
2022/11/05 05:40:43;;;;;;;2.85;1.00;;;;;;;;;;4918606;29;20051;-75
2022/11/05 05:43:09;;;;;;;3.83;1.15;;;;;;;;;;4918812;29;20063;-75
2022/11/05 05:45:35;;;;;;;7.82;1.25;;;;;;;;;;4918240;29;20051;-75
2022/11/05 05:48:03;;;;;;;4.70;1.10;;;;;;;;;;4918437;29;20131;-75
2022/11/05 05:50:29;;;;;;;4.07;1.02;;;;;;;;;;4918258;29;20054;-75
2022/11/05 05:52:55;;;;;;;2.28;1.25;;;;;;;;;;4922494;29;20518;-75
2022/11/05 05:55:21;;;;;;;2.70;1.42;;;;;;;;;;4922068;29;20048;-75
2022/11/05 05:57:47;;;;;;;3.97;1.10;;;;;;;;;;4922411;29;20123;-75
2022/11/05 06:00:14;;;;;;;4.22;1.40;;;;;;;;;;4921898;29;20590;-75
2022/11/05 06:02:40;;;;;;;5.00;1.40;;;;;;;;;;4922949;29;20048;-75
2022/11/05 06:05:06;;;;;;;6.75;1.75;;;;;;;;;;4922246;29;20051;-75
2022/11/05 06:07:32;;;;;;;5.82;1.20;;;;;;;;;;4922313;29;20072;-75
2022/11/05 06:09:58;;;;;;;4.05;1.38;;;;;;;;;;4922086;29;20099;-75
2022/11/05 06:12:24;;;;;;;2.72;1.40;;;;;;;;;;4922190;29;20067;-75
2022/11/05 06:14:51;;;;;;;2.53;1.40;;;;;;;;;;4922429;29;20165;-75
2022/11/05 06:17:17;;;;;;;5.75;1.67;;;;;;;;;;4921866;29;20163;-75
2022/11/05 06:19:43;;;;;;;2.08;1.27;;;;;;;;;;4922187;29;20077;-75
2022/11/05 06:22:09;;;;;;;4.05;1.52;;;;;;;;;;4922045;29;20183;-75
2022/11/05 06:24:35;;;;;;;2.05;1.20;;;;;;;;;;4936300;29;20385;-75
2022/11/05 06:27:01;;;;;;;5.10;1.80;;;;;;;;;;4921936;29;20043;-75
2022/11/05 06:29:27;;;;;;;4.30;1.30;;;;;;;;;;4922119;29;20044;-75
2022/11/05 06:31:53;;;;;;;5.20;1.83;;;;;;;;;;4921845;29;20083;-75
2022/11/05 06:34:19;;;;;;;3.03;1.60;;;;;;;;;;4922343;29;20047;-75
2022/11/05 06:36:45;;;;;;;3.83;1.60;;;;;;;;;;4921781;29;20050;-75
2022/11/05 06:39:12;;;;;;;2.90;1.42;;;;;;;;;;4922197;29;20075;-75
2022/11/05 06:41:38;;;;;;;2.90;1.58;;;;;;;;;;4921305;29;20064;-75
2022/11/05 06:44:04;;;;;;;3.85;1.58;;;;;;;;;;4921768;29;20083;-75
2022/11/05 06:46:30;;;;;;;4.25;1.85;;;;;;;;;;4935865;29;20432;-75
2022/11/05 06:48:56;;;;;;;3.45;1.60;;;;;;;;;;4921782;29;20181;-75
2022/11/05 06:51:23;;;;;;;7.63;1.90;;;;;;;;;;4920996;29;20102;-75
2022/11/05 06:53:49;;;;;;;2.00;1.38;;;;;;;;;;4921115;29;20043;-75
2022/11/05 06:56:15;;;;;;;4.90;1.73;;;;;;;;;;4920977;29;20040;-75
2022/11/05 06:58:41;;;;;;;4.15;1.92;;;;;;;;;;4921677;29;20472;-75
2022/11/05 07:01:08;;;;;;;3.28;1.67;;;;;;;;;;4920822;29;20092;-75
2022/11/05 07:03:35;;;;;;;4.70;1.90;;;;;;;;;;4919974;29;20560;-75
2022/11/05 07:06:03;;;;;;;4.03;1.77;;;;;;;;;;4920880;29;20056;-75
2022/11/05 07:08:36;;;;;;;5.45;1.95;;;;;;;;;;4920624;29;20047;-75
2022/11/05 07:11:02;;;;;;;5.18;1.90;;;;;;;;;;4920410;29;20048;-75
2022/11/05 07:13:28;;;;;;;6.07;1.95;;;;;;;;;;4920556;29;20078;-75
2022/11/05 07:15:54;;;;;;;3.58;1.67;;;;;;;;;;4920791;29;20050;-75
2022/11/05 07:18:21;;;;;;;8.45;2.10;;;;;;;;;;4921086;29;20048;-75
2022/11/05 07:20:48;;;;;;;7.10;1.85;;;;;;;;;;4920642;29;20079;-75
2022/11/05 07:23:14;;;;;;;7.00;1.85;;;;;;;;;;4920306;29;20432;-75
2022/11/05 07:25:41;;;;;;;6.60;1.90;;;;;;;;;;4920437;29;20059;-75
2022/11/05 07:28:08;;;;;;;7.50;2.28;;;;;;;;;;4920275;29;20048;-75
2022/11/05 07:30:34;;;;;;;6.43;1.67;;;;;;;;;;4920667;29;20055;-75
2022/11/05 07:33:00;;;;;;;4.72;2.17;;;;;;;;;;4919054;29;20044;-76
2022/11/05 07:35:26;;;;;;;4.35;1.90;;;;;;;;;;4919538;29;20127;-75
2022/11/05 07:37:54;;;;;;;7.55;1.85;;;;;;;;;;4919673;29;20131;-75
2022/11/05 07:40:20;;;;;;;4.45;1.73;;;;;;;;;;4919499;29;20595;-75
2022/11/05 07:42:51;;;;;;;5.32;1.70;;;;;;;;;;4919585;29;20120;-75
2022/11/05 07:45:17;;;;;;;5.50;1.60;;;;;;;;;;4937888;29;20047;-75
2022/11/05 07:47:47;;;;;;;5.40;1.55;;;;;;;;;;4933533;29;20062;-75
2022/11/05 07:50:13;;;;;;;6.30;2.30;;;;;;;;;;4919932;29;20051;-75
2022/11/05 07:52:39;;;;;;;3.67;1.45;;;;;;;;;;4919256;29;20070;-75
2022/11/05 07:55:06;;;;;;;4.15;1.40;;;;;;;;;;4918370;29;20076;-74
2022/11/05 07:57:32;;;;;;;5.05;1.48;;;;;;;;;;4916698;29;20041;-75
2022/11/05 07:59:58;;;;;;;6.82;1.90;;;;;;;;;;4919452;29;20103;-74
2022/11/05 08:02:24;;;;;;;7.00;1.38;;;;;;;;;;4920584;29;20052;-75
2022/11/05 08:04:50;;;;;;;3.72;1.38;;;;;;;;;;4919192;29;20056;-75
2022/11/05 08:07:16;;;;;;;3.05;1.50;;;;;;;;;;4919197;29;20047;-75
2022/11/05 08:09:42;;;;;;;6.90;1.63;;;;;;;;;;4919052;29;20063;-75
2022/11/05 08:12:09;;;;;;;3.72;1.25;;;;;;;;;;4919073;29;20103;-75
2022/11/05 08:14:35;;;;;;;7.13;1.20;;;;;;;;;;4915845;29;20044;-75
2022/11/05 08:17:01;;;;;;;4.30;1.30;;;;;;;;;;4917125;29;20044;-76
2022/11/05 08:19:27;;;;;;;2.65;1.10;;;;;;;;;;4919459;29;20052;-76
2022/11/05 08:21:53;;;;;;;4.63;1.20;;;;;;;;;;4912516;29;20095;-75
2022/11/05 08:24:19;;;;;;;4.28;0.90;;;;;;;;;;4903382;29;20144;-75
2022/11/05 08:26:45;;;;;;;3.80;1.00;;;;;;;;;;4918070;29;20044;-74
2022/11/05 08:29:11;;;;;;;3.72;1.00;;;;;;;;;;4918538;29;20059;-75
2022/11/05 08:31:37;;;;;;;4.65;1.25;;;;;;;;;;4919148;29;20100;-74
2022/11/05 08:34:03;;;;;;;2.38;1.90;;;;;;;;;;4917988;29;20545;-75
2022/11/05 08:36:30;;;;;;;9.75;4.00;;;;;;;;;;4913060;29;20071;-75
2022/11/05 08:38:56;;;;;;;5.00;1.60;;;;;;;;;;4917727;29;20492;-75
2022/11/05 08:41:22;;;;;;;2.88;0.90;;;;;;;;;;4917855;29;20044;-75
2022/11/05 08:43:48;;;;;;;4.03;1.00;;;;;;;;;;4918463;29;20119;-75
2022/11/05 08:46:14;;;;;;;3.92;1.00;;;;;;;;;;4917578;29;20051;-75
2022/11/05 08:48:40;;;;;;;6.20;1.20;;;;;;;;;;4918050;29;20128;-76
2022/11/05 08:51:06;;;;;;;6.07;1.20;;;;;;;;;;4933315;29;20072;-76
2022/11/05 08:53:32;;;;;;;3.70;1.05;;;;;;;;;;4936557;29;20050;-75
2022/11/05 08:55:59;;;;;;;4.80;1.25;;;;;;;;;;4929391;29;20048;-76
2022/11/05 08:58:25;;;;;;;6.18;2.13;;;;;;;;;;4918085;29;20381;-77
2022/11/05 09:00:51;;;;;;;7.65;2.20;;;;;;;;;;4917639;29;20055;-77
2022/11/05 09:03:18;;;;;;;7.15;1.60;;;;;;;;;;4916291;29;20381;-76
2022/11/05 09:05:44;;;;;;;4.28;1.83;;;;;;;;;;4916740;29;20056;-78
2022/11/05 09:08:12;;;;;;;5.53;1.23;;;;;;;;;;4917140;29;20048;-79
2022/11/05 09:10:39;;;;;;;3.35;1.77;;;;;;;;;;4916831;29;20108;-78
2022/11/05 09:13:05;;;;;;;5.85;2.03;;;;;;;;;;4916884;29;20131;-80
2022/11/05 09:15:32;;;;;;;6.97;2.30;;;;;;;;;;4918190;29;20040;-77
2022/11/05 09:17:58;;;;;;;4.95;1.55;;;;;;;;;;4935295;29;20068;-77
2022/11/05 09:20:25;;;;;;;4.32;1.30;;;;;;;;;;4937383;29;20538;-77
2022/11/05 09:22:51;;;;;;;5.20;1.10;;;;;;;;;;4921863;29;20512;-77
2022/11/05 09:25:17;;;;;;;3.00;1.00;;;;;;;;;;4917163;29;20108;-77
2022/11/05 09:27:44;;;;;;;6.90;2.70;;;;;;;;;;4918405;29;20044;-77
2022/11/05 09:30:11;;;;;;;5.95;2.78;;;;;;;;;;4900952;29;20535;-77
2022/11/05 09:32:37;;;;;;;6.68;1.20;;;;;;;;;;4916762;29;20044;-77
2022/11/05 09:35:04;;;;;;;5.28;1.55;;;;;;;;;;4918599;29;20059;-76
2022/11/05 09:37:30;;;;;;;8.75;4.20;;;;;;;;;;4917434;29;20067;-76
2022/11/05 09:39:56;;;;;;;6.38;2.08;;;;;;;;;;4917897;29;20043;-77
2022/11/05 09:42:25;;;;;;;7.85;1.33;;;;;;;;;;4916986;29;20055;-77
2022/11/05 09:44:54;;;;;;;6.60;1.40;;;;;;;;;;4918395;29;20138;-77
2022/11/05 09:47:23;;;;;;;3.13;1.13;;;;;;;;;;4918398;29;20074;-75
2022/11/05 09:49:51;;;;;;;6.07;1.20;;;;;;;;;;4917474;29;20044;-79
2022/11/05 09:52:20;;;;;;;6.32;1.45;;;;;;;;;;4917199;29;20075;-81
2022/11/05 09:54:47;;;;;;;4.22;1.05;;;;;;;;;;4918208;29;20099;-81
2022/11/05 09:57:19;;;;;;;3.17;0.90;;;;;;;;;;4910064;29;20076;-72
2022/11/05 09:59:47;;;;;;;6.10;1.35;;;;;;;;;;4915245;29;20048;-75
2022/11/05 10:02:18;;;;;;;2.47;1.20;;;;;;;;;;4914981;29;20080;-76
2022/11/05 10:04:46;;;;;;;3.72;1.00;;;;;;;;;;4909210;29;20056;-73
2022/11/05 10:07:14;;;;;;;3.80;0.90;;;;;;;;;;4910752;29;20044;-72
2022/11/05 10:09:47;;;;;;;4.80;1.13;;;;;;;;;;4935449;29;20051;-71
2022/11/05 10:12:22;;;;;;;5.82;1.42;;;;;;;;;;4909339;29;20086;-74
2022/11/05 10:14:58;;;;;;;2.28;1.10;;;;;;;;;;4910063;29;20575;-72
2022/11/05 10:17:25;;;;;;;4.82;1.33;;;;;;;;;;4914728;29;20044;-74
2022/11/05 10:20:05;;;;;;;3.75;1.30;;;;;;;;;;4908814;29;20079;-75
2022/11/05 10:22:32;;;;;;;4.25;1.00;;;;;;;;;;4908624;29;20095;-74
2022/11/05 10:24:59;;;;;;;4.20;1.30;;;;;;;;;;4908578;29;20044;-76
2022/11/05 10:27:31;;;;;;;5.05;1.25;;;;;;;;;;4911510;29;20055;-75
2022/11/05 10:29:57;;;;;;;5.82;1.52;;;;;;;;;;4915321;29;20052;-75
2022/11/05 10:32:24;;;;;;;4.68;0.90;;;;;;;;;;4912996;29;20044;-74
2022/11/05 10:34:50;;;;;;;10.02;1.23;;;;;;;;;;4910248;29;20127;-75
2022/11/05 10:37:17;;;;;;;6.50;1.40;;;;;;;;;;4915754;29;20075;-75
2022/11/05 10:39:43;;;;;;;3.05;1.15;;;;;;;;;;4920138;29;20044;-75
2022/11/05 10:42:28;;;;;;;4.93;1.10;;;;;;;;;;4915931;29;20048;-75
2022/11/05 10:45:12;;;;;;;3.22;0.93;;;;;;;;;;4923081;29;20059;-75
2022/11/05 10:47:38;;;;;;;4.22;1.23;;;;;;;;;;4929212;29;20377;-74
2022/11/05 10:50:09;;;;;;;3.50;1.00;;;;;;;;;;4920373;29;20051;-75
2022/11/05 10:52:39;;;;;;;5.18;1.00;;;;;;;;;;4920433;29;20048;-73
2022/11/05 10:55:16;;;;;;;2.97;0.95;;;;;;;;;;4908164;29;20075;-74
2022/11/05 10:57:42;;;;;;;5.13;0.95;;;;;;;;;;4920434;29;20040;-74
2022/11/05 11:00:12;;;;;;;3.47;0.95;;;;;;;;;;4916543;29;20044;-74
2022/11/05 11:02:38;;;;;;;1.90;0.77;;;;;;;;;;4914218;29;20060;-75
2022/11/05 11:05:05;;;;;;;3.20;1.02;;;;;;;;;;4918962;29;20056;-74
2022/11/05 11:07:31;;;;;;;5.70;0.98;;;;;;;;;;4909505;29;20131;-72
2022/11/05 11:09:57;;;;;;;3.88;1.00;;;;;;;;;;4911183;29;20052;-74
2022/11/05 11:12:26;;;;;;;4.75;1.08;;;;;;;;;;4914912;29;20112;-74
2022/11/05 11:15:02;;;;;;;3.95;0.73;;;;;;;;;;4910963;29;20040;-73
2022/11/05 11:17:30;;;;;;;16.95;1.42;;;;;;;;;;4909888;29;20061;-73
2022/11/05 11:20:15;;;;;;;5.00;1.08;;;;;;;;;;4927083;29;20063;-73
2022/11/05 11:22:41;;;;;;;4.50;1.10;;;;;;;;;;4918405;29;20044;-74
2022/11/05 11:25:26;;;;;;;4.32;0.88;;;;;;;;;;4919619;29;20051;-75
2022/11/05 11:27:53;;;;;;;2.88;0.90;;;;;;;;;;4918941;29;20040;-75
2022/11/05 11:30:19;;;;;;;4.82;0.88;;;;;;;;;;4919855;29;20086;-75
2022/11/05 11:32:47;;;;;;;4.75;1.25;;;;;;;;;;4911442;29;20044;-75
2022/11/05 11:35:21;;;;;;;3.45;1.08;;;;;;;;;;4914322;29;20048;-75
2022/11/05 11:37:47;;;;;;;4.28;1.40;;;;;;;;;;4914853;29;20044;-75
2022/11/05 11:40:19;;;;;;;3.63;1.13;;;;;;;;;;4912901;29;20393;-76
2022/11/05 11:42:55;;;;;;;3.58;1.20;;;;;;;;;;4919457;29;20096;-75
2022/11/05 11:45:32;;;;;;;4.95;0.88;;;;;;;;;;4925738;29;20094;-74
2022/11/05 11:48:01;;;;;;;2.78;1.00;;;;;;;;;;4915379;29;20637;-75
2022/11/05 11:50:34;;;;;;;3.05;1.00;;;;;;;;;;4930260;29;20146;-75
2022/11/05 11:53:17;;;;;;;2.55;1.08;;;;;;;;;;4918997;29;20052;-75
2022/11/05 11:55:55;;;;;;;3.35;0.82;;;;;;;;;;4919321;29;20043;-74
2022/11/05 11:58:22;;;;;;;2.17;0.77;;;;;;;;;;4917732;29;20105;-75
2022/11/05 12:01:11;;;;;;;5.15;1.00;;;;;;;;;;4924305;29;20040;-74
2022/11/05 12:03:47;;;;;;;2.63;0.73;;;;;;;;;;4913338;29;20067;-77
2022/11/05 12:06:13;;;;;;;3.85;0.95;;;;;;;;;;4916952;29;20044;-73
2022/11/05 12:08:41;;;;;;;6.40;1.25;;;;;;;;;;4917635;29;20048;-73
2022/11/05 12:11:07;;;;;;;3.35;0.82;;;;;;;;;;4918889;29;20051;-73
2022/11/05 12:13:52;;;;;;;3.80;1.00;;;;;;;;;;4919374;29;20040;-73
2022/11/05 12:16:37;;;;;;;4.30;1.10;;;;;;;;;;4919403;29;20134;-73
2022/11/05 12:19:03;;;;;;;4.07;1.02;;;;;;;;;;4899198;29;20045;-72
2022/11/05 12:21:35;;;;;;;3.97;1.08;;;;;;;;;;4899825;29;20068;-73
2022/11/05 12:24:01;;;;;;;4.20;1.40;;;;;;;;;;4899162;29;20076;-73
2022/11/05 12:26:47;;;;;;;2.88;1.02;;;;;;;;;;4909464;29;20122;-73
2022/11/05 12:29:28;;;;;;;4.15;1.10;;;;;;;;;;4911687;29;20048;-73
2022/11/05 12:32:09;;;;;;;3.50;1.10;;;;;;;;;;4918171;29;20051;-73
2022/11/05 12:34:35;;;;;;;4.80;1.33;;;;;;;;;;4918159;29;20047;-73
2022/11/05 12:37:11;;;;;;;3.75;1.10;;;;;;;;;;4918843;29;20044;-73
2022/11/05 12:39:40;;;;;;;7.07;1.30;;;;;;;;;;4916778;29;20100;-73
2022/11/05 12:42:10;;;;;;;5.32;1.38;;;;;;;;;;4917531;29;20138;-73
2022/11/05 12:44:45;;;;;;;5.50;1.40;;;;;;;;;;4918163;29;20044;-73
2022/11/05 12:47:18;;;;;;;3.45;1.40;;;;;;;;;;4918407;29;20051;-73
2022/11/05 12:49:59;;;;;;;6.90;1.08;;;;;;;;;;4918190;29;20188;-73
2022/11/05 12:52:44;;;;;;;2.75;1.00;;;;;;;;;;4917693;29;20102;-73
2022/11/05 12:55:13;;;;;;;4.15;1.27;;;;;;;;;;4908527;29;20503;-73
2022/11/05 12:57:40;;;;;;;3.03;1.02;;;;;;;;;;4917744;29;20044;-73
2022/11/05 13:00:07;;;;;;;8.57;1.33;;;;;;;;;;4918378;29;20052;-73
2022/11/05 13:02:53;;;;;;;5.38;1.30;;;;;;;;;;4917966;29;20463;-73
2022/11/05 13:05:37;;;;;;;2.47;0.73;;;;;;;;;;4918066;29;20523;-73
2022/11/05 13:08:19;;;;;;;3.33;0.90;;;;;;;;;;4918680;29;20130;-73
2022/11/05 13:10:50;;;;;;;4.35;1.30;;;;;;;;;;4917517;29;20412;-73
2022/11/05 13:13:16;;;;;;;;;;;;;;;;;;4917811;29;20075;-73
2022/11/05 13:15:48;;;;;;;3.38;1.05;;;;;;;;;;4918054;29;19942;-73
2022/11/05 13:18:17;;;;;;;4.05;1.20;;;;;;;;;;4915832;29;20052;-73
2022/11/05 13:20:46;;;;;;;8.88;1.00;;;;;;;;;;4917519;29;20526;-74
2022/11/05 13:23:31;;;;;;;4.90;1.50;;;;;;;;;;4917858;29;20044;-73
2022/11/05 13:26:02;;;;;;;3.80;1.00;;;;;;;;;;4915837;29;20048;-73
2022/11/05 13:28:31;;;;;;;3.83;1.30;;;;;;;;;;4918163;29;20036;-73
2022/11/05 13:31:00;;;;;;;3.20;1.25;;;;;;;;;;4916701;29;20127;-73
2022/11/05 13:33:34;;;;;;;3.35;1.00;;;;;;;;;;4916615;29;20048;-73
2022/11/05 13:38:58;;;;;;;5.45;1.92;;;;;;;;;;4916767;29;20047;-73
2022/11/05 13:41:24;;;;;;;3.35;1.20;;;;;;;;;;4914505;29;20047;-73
2022/11/05 13:43:50;;;;;;;2.30;1.20;;;;;;;;;;4915180;29;20040;-73
2022/11/05 13:46:39;;;;;;;3.72;1.35;;;;;;;;;;4916619;29;20055;-73
2022/11/05 13:49:05;;;;;;;4.05;1.77;;;;;;;;;;4917265;29;20055;-73
2022/11/05 13:51:42;;;;;;;6.15;1.05;;;;;;;;;;4916158;29;20044;-74
2022/11/05 13:54:26;;;;;;;1.55;0.75;;;;;;;;;;4917918;29;20052;-73
2022/11/05 13:56:58;;;;;;;2.72;0.90;;;;;;;;;;4914047;29;20079;-74
2022/11/05 13:59:43;;;;;;;2.63;1.38;;;;;;;;;;4917782;29;20072;-73
2022/11/05 14:02:20;;;;;;;7.47;2.90;;;;;;;;;;4916538;29;20047;-73
2022/11/05 14:04:47;;;;;;;4.82;2.00;;;;;;;;;;4917470;29;20063;-73
2022/11/05 14:07:28;;;;;;;6.30;2.00;;;;;;;;;;4916864;29;20052;-74
2022/11/05 14:10:14;;;;;;;5.25;2.33;;;;;;;;;;4916721;29;20063;-73
2022/11/05 14:12:45;;;;;;;7.00;1.90;;;;;;;;;;4919228;29;20074;-73
2022/11/05 14:15:11;;;;;;;;;;;;;;;;;;4921521;29;20135;-72
2022/11/05 14:17:53;;;;;;;5.38;1.10;;;;;;;;;;4919334;29;19942;-73
2022/11/05 14:20:31;;;;;;;4.60;1.50;;;;;;;;;;4919941;29;20040;-73
2022/11/05 14:23:16;;;;;;;6.20;1.40;;;;;;;;;;4919058;29;20048;-72
2022/11/05 14:25:42;;;;;;;4.68;2.70;;;;;;;;;;4920550;29;20048;-72
2022/11/05 14:28:27;;;;;;;7.68;3.75;;;;;;;;;;4920818;29;20036;-72
2022/11/05 14:30:53;;;;;;;7.25;2.10;;;;;;;;;;4902386;29;20045;-73
2022/11/05 14:33:25;;;;;;;5.57;1.83;;;;;;;;;;4907865;29;20032;-73
2022/11/05 14:35:52;;;;;;;8.00;5.75;;;;;;;;;;4920311;29;20056;-72
2022/11/05 14:38:20;;;;;;;6.68;2.83;;;;;;;;;;4919657;29;20040;-73
2022/11/05 14:40:47;;;;;;;4.38;1.90;;;;;;;;;;4919613;29;20123;-73
2022/11/05 14:43:13;;;;;;;3.95;1.70;;;;;;;;;;4919853;29;20056;-73
2022/11/05 14:45:41;;;;;;;4.22;2.30;;;;;;;;;;4915939;29;20062;-72
2022/11/05 14:48:25;;;;;;;5.60;2.50;;;;;;;;;;4919037;29;20059;-73
2022/11/05 14:50:51;;;;;;;10.70;5.65;;;;;;;;;;4908149;29;20074;-73
2022/11/05 14:53:34;;;;;;;11.30;5.55;;;;;;;;;;4920608;29;20567;-73
2022/11/05 14:56:12;;;;;;;13.10;5.80;;;;;;;;;;4928981;29;20044;-73
2022/11/05 14:58:39;;;;;;;4.10;1.52;;;;;;;;;;4907347;29;20480;-73
2022/11/05 15:01:25;;;;;;;8.38;3.85;;;;;;;;;;4920314;29;20044;-73
2022/11/05 15:04:02;;;;;;;7.10;3.83;;;;;;;;;;4912178;29;20040;-72
2022/11/05 15:06:33;;;;;;;24.88;10.95;;;;;;;;;;4934667;29;20412;-72
2022/11/05 15:08:59;;;;;;;4.55;1.45;;;;;;;;;;4920502;29;20067;-72
2022/11/05 15:11:25;;;;;;;14.25;10.20;;;;;;;;;;4926671;29;20063;-72
2022/11/05 15:13:54;;;;;;;4.28;1.48;;;;;;;;;;4939236;29;20591;-72
2022/11/05 15:16:25;;;;;;;5.05;1.73;;;;;;;;;;4938780;29;20047;-73
2022/11/05 15:18:52;;;;;;;9.52;3.58;;;;;;;;;;4918392;29;20046;-73
2022/11/05 15:21:19;;;;;;;5.35;1.67;;;;;;;;;;4920027;29;20044;-73
2022/11/05 15:23:47;;;;;;;5.82;2.20;;;;;;;;;;4918261;29;20127;-72
2022/11/05 15:26:15;;;;;;;3.50;1.40;;;;;;;;;;4919054;29;20052;-72
2022/11/05 15:28:48;;;;;;;7.13;1.95;;;;;;;;;;4919820;29;20040;-72
2022/11/05 15:31:14;;;;;;;8.95;2.60;;;;;;;;;;4917282;29;20470;-73
2022/11/05 15:33:42;;;;;;;5.95;2.03;;;;;;;;;;4918651;29;20028;-73
2022/11/05 15:36:25;;;;;;;11.00;2.95;;;;;;;;;;4919132;29;20564;-73
2022/11/05 15:38:51;;;;;;;6.18;1.95;;;;;;;;;;4919515;29;20040;-73
2022/11/05 15:41:21;;;;;;;8.20;1.70;;;;;;;;;;4918369;29;20052;-76